Aviation Digital Data Service (ADDS)

Output produced by METARs form (1614 UTC 25 January 2015)
found at http://www.aviationweather.gov/adds/metars/
 
METAR text: KCMI 251553Z 06009KT 5SM -RA BR BKN049 OVC060 02/01 A2963 RMK AO2 UPB33E48 SLP039 P0001 T00170011
Conditions at: KCMI (CHAMPAIGN/URBANA, IL, US) observed 1553 UTC 25 January 2015
Temperature: 1.7°C (35°F)
Dewpoint: 1.1°C (34°F) [RH = 96%]
Pressure (altimeter): 29.63 inches Hg (1003.5 mb)
[Sea-level pressure: 1003.9 mb]
Winds: from the ENE (60 degrees) at 10 MPH (9 knots; 4.7 m/s)
Visibility: 5 miles (8 km)
Ceiling: 4900 feet AGL
Clouds: broken clouds at 4900 feet AGL
overcast cloud deck at 6000 feet AGL
Weather: -RA BR  (light rain, mist)

METAR text: KCMI 251514Z 07008KT 4SM -RA BR SCT029 BKN039 OVC049 02/01 A2963 RMK AO2 P0001 T00220006
Conditions at: KCMI (CHAMPAIGN/URBANA, IL, US) observed 1514 UTC 25 January 2015
Temperature: 2.2°C (36°F)
Dewpoint: 0.6°C (33°F) [RH = 89%]
Pressure (altimeter): 29.63 inches Hg (1003.5 mb)
Winds: from the ENE (70 degrees) at 9 MPH (8 knots; 4.2 m/s)
Visibility: 4 miles (6 km)
Ceiling: 3900 feet AGL
Clouds: scattered clouds at 2900 feet AGL
broken clouds at 3900 feet AGL
overcast cloud deck at 4900 feet AGL
Weather: -RA BR  (light rain, mist)

METAR text: KCMI 251507Z 06007KT 5SM -RA BR BKN029 BKN037 OVC049 02/01 A2962 RMK AO2 P0000 T00170006
Conditions at: KCMI (CHAMPAIGN/URBANA, IL, US) observed 1507 UTC 25 January 2015
Temperature: 1.7°C (35°F)
Dewpoint: 0.6°C (33°F) [RH = 92%]
Pressure (altimeter): 29.62 inches Hg (1003.1 mb)
Winds: from the ENE (60 degrees) at 8 MPH (7 knots; 3.6 m/s)
Visibility: 5 miles (8 km)
Ceiling: 2900 feet AGL
Clouds: broken clouds at 2900 feet AGL
broken clouds at 3700 feet AGL
overcast cloud deck at 4900 feet AGL
Weather: -RA BR  (light rain, mist)

METAR text: KCMI 251453Z 06007KT 5SM -RA BR OVC030 02/01 A2962 RMK AO2 SLP037 P0003 60004 T00170006 51006
Conditions at: KCMI (CHAMPAIGN/URBANA, IL, US) observed 1453 UTC 25 January 2015
Temperature: 1.7°C (35°F)
Dewpoint: 0.6°C (33°F) [RH = 92%]
Pressure (altimeter): 29.62 inches Hg (1003.1 mb)
[Sea-level pressure: 1003.7 mb]
Winds: from the ENE (60 degrees) at 8 MPH (7 knots; 3.6 m/s)
Visibility: 5 miles (8 km)
Ceiling: 3000 feet AGL
Clouds: overcast cloud deck at 3000 feet AGL
Weather: -RA BR  (light rain, mist)

Forecast for: KCMI (CHAMPAIGN/URBANA, IL, US)
Text: KCMI 251139Z 2512/2612 14007KT P6SM VCSH OVC050
Forecast period: 1200 to 1400 UTC 25 January 2015
Forecast type: FROM: standard forecast or significant change
Winds: from the SE (140 degrees) at 8 MPH (7 knots; 3.6 m/s)
Visibility: 6 or more miles (10+ km)
Ceiling: 5000 feet AGL
Clouds: overcast cloud deck at 5000 feet AGL
Weather: VCSH  (showers in vicinity)
Text: FM251400 09008KT 6SM -RA BR SCT015 OVC035
Forecast period: 1400 to 1700 UTC 25 January 2015
Forecast type: FROM: standard forecast or significant change
Winds: from the E (90 degrees) at 9 MPH (8 knots; 4.2 m/s)
Visibility: 6 miles (10 km)
Ceiling: 3500 feet AGL
Clouds: scattered clouds at 1500 feet AGL
overcast cloud deck at 3500 feet AGL
Weather: -RA BR  (light rain, mist)
Text: FM251700 06012G21KT 2SM -RA BR OVC007
Forecast period: 1700 to 2000 UTC 25 January 2015
Forecast type: FROM: standard forecast or significant change
Winds: from the ENE (60 degrees) at 14 MPH (12 knots; 6.2 m/s)
gusting to 24 MPH (21 knots; 10.9 m/s)
Visibility: 2.00 miles (3.22 km)
Ceiling: 700 feet AGL
Clouds: overcast cloud deck at 700 feet AGL
Weather: -RA BR  (light rain, mist)
Text: FM252000 04018G28KT 1SM -SN BR OVC006
Forecast period: 2000 UTC 25 January 2015 to 0000 UTC 26 January 2015
Forecast type: FROM: standard forecast or significant change
Winds: from the NE (40 degrees) at 21 MPH (18 knots; 9.4 m/s)
gusting to 32 MPH (28 knots; 14.6 m/s)
Visibility: 1.00 miles (1.61 km)
Ceiling: 600 feet AGL
Clouds: overcast cloud deck at 600 feet AGL
Weather: -SN BR  (light snow, mist)
Text: FM260000 01018G28KT P6SM OVC015
Forecast period: 0000 to 0600 UTC 26 January 2015
Forecast type: FROM: standard forecast or significant change
Winds: from the N (10 degrees) at 21 MPH (18 knots; 9.4 m/s)
gusting to 32 MPH (28 knots; 14.6 m/s)
Visibility: 6 or more miles (10+ km)
Ceiling: 1500 feet AGL
Clouds: overcast cloud deck at 1500 feet AGL
Weather: no significant weather forecast for this period
Text: FM260600 36016KT P6SM BKN025
Forecast period: 0600 to 1200 UTC 26 January 2015
Forecast type: FROM: standard forecast or significant change
Winds: from the N (360 degrees) at 18 MPH (16 knots; 8.3 m/s)
Visibility: 6 or more miles (10+ km)
Ceiling: 2500 feet AGL
Clouds: broken clouds at 2500 feet AGL
Weather: no significant weather forecast for this period